Time;durP1;ratioP1;P1;durP2;ratioP2;P2;SDS_P1;SDS_P2;PMS_P1;PMS_P2;Temp;Humidity;BMP_temperature;BMP_pressure;BME280_temperature;BME280_humidity;BME280_pressure;Samples;Min_cycle;Max_cycle;Signal;HPM_P1;HPM_P2
2022/08/10 00:01:04;;;;;;;8.40;4.47;;;;;;;23.24;44.45;94205.06;6103415;23;20023;-94
2022/08/10 00:03:29;;;;;;;6.07;4.32;;;;;;;23.24;44.70;94202.31;6113849;23;20122;-92
2022/08/10 00:05:55;;;;;;;5.78;4.10;;;;;;;23.25;44.81;94203.78;6105127;23;20024;-94
2022/08/10 00:08:23;;;;;;;8.02;4.85;;;;;;;23.24;44.79;94203.06;6106698;23;20012;-94
2022/08/10 00:10:49;;;;;;;5.78;4.05;;;;;;;23.22;44.70;94208.34;6102057;23;20013;-93
2022/08/10 00:13:15;;;;;;;6.95;4.75;;;;;;;23.23;44.81;94203.56;6104145;23;20384;-92
2022/08/10 00:15:40;;;;;;;5.80;4.20;;;;;;;23.23;44.56;94207.06;6107244;23;20215;-93
2022/08/10 00:18:06;;;;;;;7.63;4.85;;;;;;;23.23;44.86;94203.56;6107811;23;20017;-93
2022/08/10 00:20:31;;;;;;;5.05;3.65;;;;;;;23.23;44.75;94207.06;6107705;23;20009;-93
2022/08/10 00:22:58;;;;;;;6.85;4.28;;;;;;;23.22;44.79;94200.06;6105856;23;20021;-93
2022/08/10 00:25:23;;;;;;;5.32;3.83;;;;;;;23.21;44.51;94197.84;6109925;23;20076;-94
2022/08/10 00:27:49;;;;;;;6.35;4.32;;;;;;;23.22;44.79;94202.09;6104914;23;20020;-93
2022/08/10 00:30:14;;;;;;;6.35;3.90;;;;;;;23.21;44.58;94201.34;6106996;23;20017;-93
2022/08/10 00:32:39;;;;;;;5.88;4.63;;;;;;;23.22;44.74;94200.06;6105821;23;20009;-94
2022/08/10 00:35:05;;;;;;;5.85;3.65;;;;;;;23.22;44.53;94204.84;6106165;23;20430;-93
2022/08/10 00:37:31;;;;;;;6.28;3.92;;;;;;;23.21;45.16;94195.81;6106063;23;20017;-93
2022/08/10 00:39:57;;;;;;;6.05;3.97;;;;;;;23.20;44.71;94191.56;6107665;23;20028;-93
2022/08/10 00:42:24;;;;;;;6.35;4.05;;;;;;;23.20;45.05;94197.09;6109273;23;20084;-93
2022/08/10 00:44:49;;;;;;;6.93;3.53;;;;;;;23.19;44.59;94194.84;6106301;23;20013;-94
2022/08/10 00:47:15;;;;;;;5.50;3.70;;;;;;;23.21;44.63;94192.31;6108838;23;20034;-94
2022/08/10 00:49:40;;;;;;;5.55;3.80;;;;;;;23.19;44.64;94195.59;6103326;23;20013;-93
2022/08/10 00:52:06;;;;;;;5.68;3.20;;;;;;;23.19;44.79;94183.81;6106432;23;20353;-92
2022/08/10 00:54:31;;;;;;;6.60;3.63;;;;;;;23.18;44.69;94180.31;6104861;23;20021;-93
2022/08/10 00:56:57;;;;;;;5.68;3.53;;;;;;;23.19;44.79;94178.28;6104422;23;20051;-93
2022/08/10 00:59:22;;;;;;;5.32;3.80;;;;;;;23.19;44.72;94179.03;6106298;23;20017;-94
2022/08/10 01:01:48;;;;;;;5.63;3.88;;;;;;;23.20;44.83;94186.06;6105239;23;20045;-92
2022/08/10 01:04:13;;;;;;;5.30;3.72;;;;;;;23.19;44.65;94178.28;6117399;23;20036;-92
2022/08/10 01:07:10;;;;;;;6.13;3.97;;;;;;;23.18;44.91;94185.81;6099400;23;20013;-94
2022/08/10 01:10:13;;;;;;;4.97;3.25;;;;;;;23.17;44.66;94192.59;6127096;23;20018;-94
2022/08/10 01:12:55;;;;;;;4.68;3.35;;;;;;;23.17;44.77;94187.09;6104967;23;20326;-92
2022/08/10 01:15:28;;;;;;;5.50;3.42;;;;;;;23.16;44.78;94187.66;6103651;23;20010;-93
2022/08/10 01:18:17;;;;;;;4.78;3.60;;;;;;;23.16;44.86;94193.16;6098509;23;20021;-93
2022/08/10 01:21:04;;;;;;;5.38;3.30;;;;;;;23.17;44.73;94191.88;6077817;23;20194;-93
2022/08/10 01:23:44;;;;;;;4.55;3.25;;;;;;;23.17;44.84;94191.88;6123479;23;20517;-93
2022/08/10 01:26:50;;;;;;;5.10;3.38;;;;;;;23.15;44.86;94195.19;6096902;23;20017;-92
2022/08/10 01:29:43;;;;;;;4.47;3.13;;;;;;;23.15;44.79;94192.41;6119335;23;20064;-93
2022/08/10 01:32:09;;;;;;;5.00;3.40;;;;;;;23.14;44.81;94187.41;6125998;23;20033;-93
2022/08/10 01:34:52;;;;;;;5.90;3.47;;;;;;;23.15;45.06;94183.41;6098406;23;20014;-94
2022/08/10 01:37:21;;;;;;;4.90;3.25;;;;;;;23.15;44.96;94178.63;6149177;23;20017;-93
2022/08/10 01:39:53;;;;;;;4.35;2.70;;;;;;;23.13;44.72;94180.41;6098682;23;20033;-93
2022/08/10 01:42:19;;;;;;;5.47;3.10;;;;;;;23.15;44.73;94184.13;6100191;23;20020;-95
2022/08/10 01:44:47;;;;;;;4.05;3.15;;;;;;;23.15;44.60;94188.91;6120503;23;20120;-94
2022/08/10 01:50:02;;;;;;;4.68;3.00;;;;;;;23.14;44.81;94184.66;6119397;23;20599;-92
2022/08/10 01:52:27;;;;;;;4.30;3.13;;;;;;;23.15;44.87;94186.16;6097243;23;20028;-92
2022/08/10 01:54:54;;;;;;;4.85;2.70;;;;;;;23.14;44.61;94179.16;6099396;23;20745;-93
2022/08/10 01:57:19;;;;;;;4.65;3.30;;;;;;;23.14;45.04;94187.41;6123979;23;20568;-92
2022/08/10 01:59:45;;;;;;;3.80;2.80;;;;;;;23.14;44.72;94181.91;6100333;23;20025;-95
2022/08/10 02:02:11;;;;;;;4.57;2.80;;;;;;;23.14;44.87;94190.94;6096875;23;20025;-93
2022/08/10 02:04:38;;;;;;;3.72;2.55;;;;;;;23.13;44.75;94183.16;6073171;23;20029;-93
2022/08/10 02:07:05;;;;;;;3.40;2.70;;;;;;;23.13;44.69;94178.41;6099984;23;20088;-92
2022/08/10 02:09:35;;;;;;;3.25;2.65;;;;;;;23.13;44.68;94174.91;6072327;23;20045;-93
2022/08/10 02:12:04;;;;;;;3.53;2.60;;;;;;;23.13;44.73;94185.94;6099651;23;20516;-93
2022/08/10 02:14:33;;;;;;;3.65;2.72;;;;;;;23.13;44.79;94188.69;6072897;23;20465;-93
2022/08/10 02:16:59;;;;;;;3.35;2.67;;;;;;;23.13;44.72;94177.66;6073329;23;20037;-93
2022/08/10 02:19:24;;;;;;;3.00;2.47;;;;;;;23.12;44.74;94193.47;6073007;23;20044;-93
2022/08/10 02:21:50;;;;;;;3.03;2.33;;;;;;;23.13;44.85;94183.91;6075042;23;20378;-94
2022/08/10 02:24:15;;;;;;;3.60;2.42;;;;;;;23.13;44.48;94186.69;6094528;23;20021;-94
2022/08/10 02:26:41;;;;;;;5.05;2.75;;;;;;;23.13;44.79;94181.16;6097320;23;20327;-96
2022/08/10 02:29:07;;;;;;;4.60;2.80;;;;;;;23.12;45.07;94184.44;6075497;23;20421;-93
2022/08/10 02:31:34;;;;;;;3.60;2.80;;;;;;;23.13;44.79;94188.69;6073929;23;20022;-93
2022/08/10 02:34:00;;;;;;;3.67;2.42;;;;;;;23.12;44.86;94184.44;6076344;23;20519;-94
2022/08/10 02:36:26;;;;;;;2.95;2.40;;;;;;;23.12;44.99;94184.44;6078547;23;20014;-93
2022/08/10 02:38:52;;;;;;;3.90;2.50;;;;;;;23.11;44.68;94193.97;6103433;23;20025;-95
2022/08/10 02:41:24;;;;;;;3.92;2.47;;;;;;;23.10;44.62;94184.97;6101980;23;20017;-93
2022/08/10 02:43:53;;;;;;;3.95;2.60;;;;;;;23.11;44.60;94188.47;6076525;23;20060;-93
2022/08/10 02:46:28;;;;;;;3.50;2.28;;;;;;;23.10;44.63;94196.00;6100351;23;20096;-92
2022/08/10 02:48:59;;;;;;;3.22;2.20;;;;;;;23.10;44.79;94184.22;6100935;23;20138;-93
2022/08/10 02:51:31;;;;;;;2.88;2.13;;;;;;;23.11;44.64;94185.69;6096022;23;20025;-93
2022/08/10 02:54:02;;;;;;;3.40;2.10;;;;;;;23.10;44.68;94186.97;6103058;23;20010;-93
2022/08/10 02:56:45;;;;;;;;;;;;;;;23.12;45.01;94192.72;6103234;23;20009;-93
2022/08/10 02:59:14;;;;;;;2.90;2.15;;;;;;;23.08;45.12;94201.28;6125365;23;19920;-93
2022/08/10 03:01:43;;;;;;;3.00;2.45;;;;;;;23.08;44.89;94195.78;6101753;23;20013;-94
2022/08/10 03:04:17;;;;;;;3.08;2.10;;;;;;;23.09;44.94;94197.25;6107242;23;20025;-93
2022/08/10 03:06:44;;;;;;;2.83;2.35;;;;;;;23.08;45.03;94193.00;6128170;23;20017;-94
2022/08/10 03:09:10;;;;;;;2.88;2.17;;;;;;;23.08;44.94;94186.75;6132014;23;20017;-92
2022/08/10 03:11:36;;;;;;;3.75;2.53;;;;;;;23.09;44.95;94193.75;6127491;23;20036;-93
2022/08/10 03:14:01;;;;;;;3.00;2.20;;;;;;;23.07;44.89;94191.53;6124614;23;20430;-94
2022/08/10 03:16:28;;;;;;;3.15;2.15;;;;;;;23.08;44.89;94189.50;6131008;23;20020;-93
2022/08/10 03:18:53;;;;;;;4.43;2.13;;;;;;;23.08;44.85;94197.78;6127500;23;20103;-95
2022/08/10 03:21:19;;;;;;;3.50;2.20;;;;;;;23.07;44.79;94197.03;6154778;23;20021;-93
2022/08/10 03:23:44;;;;;;;3.78;2.47;;;;;;;23.06;44.91;94195.53;6129309;23;20032;-92
2022/08/10 03:26:11;;;;;;;2.47;2.10;;;;;;;23.07;44.77;94199.78;6129638;23;20009;-93
2022/08/10 03:28:36;;;;;;;2.75;2.20;;;;;;;23.08;44.80;94198.53;6128537;23;20019;-93
2022/08/10 03:31:02;;;;;;;2.60;1.98;;;;;;;23.10;44.75;94200.75;6128253;23;20422;-93
2022/08/10 03:33:29;;;;;;;3.30;2.08;;;;;;;23.05;44.72;94196.06;6124420;23;20033;-94
2022/08/10 03:35:55;;;;;;;3.13;1.92;;;;;;;23.07;44.77;94199.03;6128980;23;20024;-96
2022/08/10 03:38:20;;;;;;;2.78;1.92;;;;;;;23.07;44.87;94199.03;6124272;23;20319;-92
2022/08/10 03:40:46;;;;;;;2.35;1.95;;;;;;;23.07;44.57;94199.03;6126128;23;20024;-94
2022/08/10 03:43:13;;;;;;;3.05;2.28;;;;;;;23.05;44.76;94191.28;6156967;23;20416;-92
2022/08/10 03:45:39;;;;;;;4.10;2.03;;;;;;;23.07;44.64;94196.28;6165807;23;20013;-94
2022/08/10 03:48:05;;;;;;;2.30;1.85;;;;;;;23.12;44.80;94190.69;6140314;23;20365;-94
2022/08/10 03:50:33;;;;;;;2.33;1.83;;;;;;;23.08;44.83;94192.25;6126199;23;20059;-94
2022/08/10 03:52:59;;;;;;;2.72;1.70;;;;;;;23.08;44.64;94195.03;6116525;23;20427;-94
2022/08/10 03:55:24;;;;;;;3.80;2.45;;;;;;;23.13;44.90;94196.97;6122477;23;20021;-94
2022/08/10 03:57:50;;;;;;;2.58;1.77;;;;;;;23.12;44.83;94189.94;6106919;23;20364;-93
2022/08/10 04:00:18;;;;;;;3.25;1.85;;;;;;;23.09;44.92;94196.50;6130031;23;20017;-93
2022/08/10 04:02:45;;;;;;;2.42;1.90;;;;;;;23.09;45.02;94202.03;6131285;23;20040;-93
2022/08/10 04:05:14;;;;;;;3.15;2.03;;;;;;;23.05;44.90;94194.06;6102948;23;20322;-93
2022/08/10 04:07:40;;;;;;;1.90;1.50;;;;;;;23.11;44.29;94203.00;6140381;23;20021;-94
2022/08/10 04:10:07;;;;;;;1.63;1.13;;;;;;;23.01;44.54;94201.88;6113462;23;20017;-94
2022/08/10 04:12:32;;;;;;;2.17;1.70;;;;;;;23.01;44.24;94196.34;6140470;23;20028;-93
2022/08/10 04:14:58;;;;;;;3.10;1.48;;;;;;;22.97;44.28;94197.91;6135159;23;20013;-93
2022/08/10 04:17:24;;;;;;;2.22;1.83;;;;;;;22.95;44.47;94206.72;6143526;23;20063;-92
2022/08/10 04:19:49;;;;;;;4.63;1.80;;;;;;;23.02;44.10;94203.38;6139734;23;20028;-94
2022/08/10 04:22:18;;;;;;;3.20;2.08;;;;;;;23.07;44.30;94204.56;6115714;23;20013;-94
2022/08/10 04:24:45;;;;;;;3.92;2.15;;;;;;;23.06;44.13;94211.34;6138101;23;20033;-93
2022/08/10 04:27:10;;;;;;;2.42;1.85;;;;;;;23.09;43.91;94211.03;6109181;23;20357;-93
2022/08/10 04:29:37;;;;;;;2.63;1.80;;;;;;;23.03;43.93;94193.81;6107459;23;20024;-92
2022/08/10 04:32:04;;;;;;;11.90;2.50;;;;;;;23.03;43.72;94204.09;6108424;23;20032;-92
2022/08/10 04:34:33;;;;;;;2.17;1.63;;;;;;;23.01;44.07;94198.38;6116987;23;20017;-93
2022/08/10 04:37:00;;;;;;;38.33;24.05;;;;;;;23.00;44.10;94205.91;6136610;23;20024;-92
2022/08/10 04:39:26;;;;;;;95.88;58.15;;;;;;;23.00;44.17;94205.16;6098519;23;20068;-93
2022/08/10 04:41:59;;;;;;;78.07;39.47;;;;;;;23.03;44.00;94202.09;6119736;23;20017;-92
2022/08/10 04:44:26;;;;;;;108.32;50.00;;;;;;;23.09;43.67;94204.78;6061758;23;20066;-91
2022/08/10 04:46:52;;;;;;;123.68;63.70;;;;;;;23.10;43.47;94209.03;6019797;23;20024;-92
2022/08/10 04:49:18;;;;;;;121.05;61.75;;;;;;;23.06;43.91;94208.59;6017899;23;20066;-92
2022/08/10 04:51:44;;;;;;;112.97;59.10;;;;;;;23.07;43.67;94205.31;6014742;23;20105;-95
2022/08/10 04:54:09;;;;;;;120.32;58.63;;;;;;;23.03;43.43;94206.88;6021710;23;20077;-95
2022/08/10 04:56:36;;;;;;;119.60;60.58;;;;;;;23.05;43.60;94207.84;6025123;23;20335;-93
2022/08/10 04:59:04;;;;;;;116.43;58.30;;;;;;;23.04;43.51;94206.34;6039604;23;20022;-90
2022/08/10 05:01:31;;;;;;;114.72;59.03;;;;;;;23.02;43.44;94203.38;6034859;23;20025;-93
2022/08/10 05:04:01;;;;;;;106.25;57.35;;;;;;;23.07;43.37;94199.78;6015957;23;20022;-94
2022/08/10 05:06:27;;;;;;;109.95;55.35;;;;;;;23.08;43.52;94195.03;6045306;23;20085;-93
2022/08/10 05:09:13;;;;;;;127.03;63.15;;;;;;;23.06;43.27;94198.31;6054449;23;20041;-94
2022/08/10 05:11:40;;;;;;;122.05;63.78;;;;;;;23.09;43.28;94202.03;6013025;23;20023;-92
2022/08/10 05:14:05;;;;;;;70.55;36.50;;;;;;;23.04;42.30;94209.09;5991419;23;20018;-92
2022/08/10 05:16:31;;;;;;;49.15;24.23;;;;;;;22.85;41.84;94206.34;5992881;23;20019;-94
2022/08/10 05:18:56;;;;;;;36.95;18.15;;;;;;;22.82;41.56;94212.91;5987505;23;20022;-91
2022/08/10 05:21:22;;;;;;;34.15;19.10;;;;;;;22.74;41.50;94206.44;5990322;23;20018;-91
2022/08/10 05:23:47;;;;;;;19.60;10.05;;;;;;;22.63;41.40;94214.13;6014008;23;20015;-93
2022/08/10 05:26:14;;;;;;;26.15;10.77;;;;;;;22.57;41.63;94205.91;5992980;23;20011;-92
2022/08/10 05:28:41;;;;;;;32.13;12.18;;;;;;;22.59;41.81;94211.66;5996095;23;20015;-93
2022/08/10 05:31:06;;;;;;;32.17;14.95;;;;;;;22.64;41.67;94207.34;6047287;23;20018;-94
2022/08/10 05:33:32;;;;;;;34.40;15.93;;;;;;;22.60;41.83;94215.91;5998888;23;20118;-92
2022/08/10 05:35:59;;;;;;;45.33;19.52;;;;;;;22.67;42.19;94201.53;5992188;23;20015;-92
2022/08/10 05:38:25;;;;;;;30.05;17.77;;;;;;;22.73;41.97;94207.00;5988931;23;20025;-94
2022/08/10 05:40:50;;;;;;;35.22;18.77;;;;;;;22.75;41.99;94207.94;6026860;23;20026;-95
2022/08/10 05:43:20;;;;;;;32.83;18.27;;;;;;;22.70;42.24;94205.28;5995842;23;20470;-91
2022/08/10 05:45:49;;;;;;;49.67;21.87;;;;;;;22.75;42.19;94204.44;6015803;23;20013;-93
2022/08/10 05:48:15;;;;;;;46.03;19.70;;;;;;;22.85;42.02;94205.59;6099364;23;20055;-92
2022/08/10 05:50:40;;;;;;;43.92;21.20;;;;;;;22.79;42.12;94207.69;6109598;23;20024;-92
2022/08/10 05:53:06;;;;;;;46.35;21.65;;;;;;;22.84;42.12;94201.34;6118675;23;20112;-94
2022/08/10 05:55:31;;;;;;;67.38;24.42;;;;;;;22.93;42.43;94198.25;6135668;23;20017;-94
2022/08/10 05:58:00;;;;;;;70.72;25.88;;;;;;;22.92;42.26;94196.00;6110458;23;20056;-95
2022/08/10 06:00:26;;;;;;;61.35;24.02;;;;;;;22.94;42.19;94202.50;6142475;23;20341;-94
2022/08/10 06:03:07;;;;;;;58.13;24.60;;;;;;;22.96;42.25;94196.44;6149293;23;20058;-94
2022/08/10 06:05:35;;;;;;;58.88;22.08;;;;;;;23.04;41.69;94202.84;6119449;23;20015;-93
2022/08/10 06:08:02;;;;;;;57.63;23.75;;;;;;;23.04;41.84;94200.84;6115200;23;20036;-93
2022/08/10 06:10:41;;;;;;;58.90;24.95;;;;;;;23.09;42.19;94207.53;6147003;23;20025;-95
2022/08/10 06:15:55;;;;;;;52.92;21.85;;;;;;;23.17;42.05;94192.59;6125932;23;20028;-93
2022/08/10 06:18:23;;;;;;;34.28;19.23;;;;;;;23.24;41.98;94208.56;6114734;23;20025;-93
2022/08/10 06:20:49;;;;;;;40.03;18.10;;;;;;;23.22;42.03;94207.59;6089412;23;20037;-91
2022/08/10 06:28:27;;;;;;;32.20;16.75;;;;;;;23.29;41.83;94212.53;6108255;23;20025;-95
2022/08/10 06:30:54;;;;;;;37.40;16.65;;;;;;;23.33;42.12;94198.44;6066788;23;20024;-93
2022/08/10 06:33:26;;;;;;;28.50;15.45;;;;;;;23.33;41.96;94204.69;6113581;23;20020;-95
2022/08/10 06:35:54;;;;;;;34.72;16.23;;;;;;;23.34;41.71;94205.44;6072870;23;20029;-95
2022/08/10 06:38:21;;;;;;;27.60;14.93;;;;;;;23.40;41.88;94217.13;6083899;23;20550;-92
2022/08/10 06:40:46;;;;;;;29.95;14.98;;;;;;;23.40;41.85;94212.34;6083075;23;20017;-91
2022/08/10 06:43:13;;;;;;;33.55;14.57;;;;;;;23.41;41.77;94213.84;6123956;23;20036;-93
2022/08/10 06:46:01;;;;;;;35.03;14.57;;;;;;;23.39;41.65;94205.34;6093977;23;20035;-94
2022/08/10 06:48:37;;;;;;;33.78;14.55;;;;;;;23.41;41.78;94210.31;6094060;23;20009;-94
2022/08/10 06:51:08;;;;;;;62.45;17.60;;;;;;;23.42;41.83;94204.28;6166598;23;20025;-93
2022/08/10 06:53:40;;;;;;;66.88;18.35;;;;;;;23.38;41.96;94205.88;6078969;23;20006;-96
2022/08/10 06:58:49;;;;;;;53.13;13.77;;;;;;;23.35;42.31;94202.16;6153154;23;20084;-91
2022/08/10 07:01:16;;;;;;;48.67;18.13;;;;;;;23.28;42.31;94208.28;6077570;23;20059;-91
2022/08/10 07:03:43;;;;;;;42.53;14.18;;;;;;;23.34;42.46;94211.69;6071975;23;20024;-91
2022/08/10 07:06:11;;;;;;;19.98;6.63;;;;;;;23.18;42.97;94205.13;6079124;23;20349;-89
2022/08/10 07:08:36;;;;;;;23.48;7.20;;;;;;;23.02;43.27;94211.63;6099224;23;20025;-89
2022/08/10 07:11:02;;;;;;;16.33;7.03;;;;;;;22.90;43.63;94208.28;6114133;23;20021;-92
2022/08/10 07:13:28;;;;;;;16.73;5.50;;;;;;;22.74;44.01;94206.44;6089193;23;20018;-92
2022/08/10 07:15:54;;;;;;;13.57;5.63;;;;;;;22.66;44.21;94211.06;6061678;23;20054;-90
2022/08/10 07:18:20;;;;;;;10.63;4.93;;;;;;;22.60;44.69;94198.63;6095573;23;20357;-92
2022/08/10 07:20:45;;;;;;;9.43;4.85;;;;;;;22.57;44.79;94205.91;6090979;23;20051;-89
2022/08/10 07:23:11;;;;;;;14.35;4.85;;;;;;;22.29;44.81;94208.25;6102432;23;20029;-91
2022/08/10 07:25:37;;;;;;;10.82;4.75;;;;;;;22.31;44.77;94206.44;6107450;23;20002;-89
2022/08/10 07:28:05;;;;;;;9.98;5.53;;;;;;;22.13;45.39;94205.13;6088632;23;20449;-90
2022/08/10 07:30:32;;;;;;;11.43;5.45;;;;;;;22.00;45.70;94207.00;6103643;23;20010;-91
2022/08/10 07:32:57;;;;;;;11.32;5.20;;;;;;;22.17;44.88;94208.34;6104820;23;20014;-93
2022/08/10 07:35:23;;;;;;;11.02;5.95;;;;;;;22.21;45.08;94205.31;6076556;23;20434;-90
2022/08/10 07:37:52;;;;;;;17.38;8.18;;;;;;;22.23;45.43;94211.81;6079446;23;20079;-92
2022/08/10 07:42:52;;;;;;;21.75;10.68;;;;;;;22.01;46.46;94211.28;6151284;23;20025;-92
2022/08/10 07:45:18;;;;;;;26.23;10.10;;;;;;;22.14;45.44;94208.63;6076242;23;20072;-91
2022/08/10 07:47:46;;;;;;;13.80;6.78;;;;;;;22.21;45.01;94211.56;6100127;23;20029;-90
2022/08/10 07:50:20;;;;;;;16.80;5.88;;;;;;;22.17;45.18;94213.13;6079660;23;20024;-93
2022/08/10 07:52:55;;;;;;;11.77;7.15;;;;;;;22.12;45.83;94211.16;6097166;23;20021;-93
2022/08/10 07:55:47;;;;;;;11.88;5.22;;;;;;;22.24;45.14;94207.03;6015365;23;20018;-93
2022/08/10 07:58:16;;;;;;;14.98;7.28;;;;;;;22.32;45.49;94204.44;6057796;23;20114;-93
2022/08/10 08:00:43;;;;;;;11.77;7.50;;;;;;;22.32;46.02;94202.44;5968276;23;20031;-93
2022/08/10 08:03:27;;;;;;;15.82;7.80;;;;;;;22.19;45.66;94203.09;5991501;23;20015;-94
2022/08/10 08:05:53;;;;;;;19.75;9.10;;;;;;;22.06;46.16;94205.72;5988883;23;20023;-94
2022/08/10 08:08:19;;;;;;;19.90;7.90;;;;;;;22.19;46.03;94202.34;6015730;23;20102;-93
2022/08/10 08:10:44;;;;;;;11.57;5.72;;;;;;;22.26;45.70;94196.25;5989367;23;20019;-92
2022/08/10 08:13:10;;;;;;;13.40;6.95;;;;;;;22.25;45.69;94192.00;5987879;23;20026;-92
2022/08/10 08:15:36;;;;;;;17.77;7.00;;;;;;;22.25;45.65;94194.78;6017971;23;20015;-91
2022/08/10 08:18:04;;;;;;;8.50;5.53;;;;;;;22.29;45.38;94197.25;6014456;23;20030;-91
2022/08/10 08:20:29;;;;;;;6.72;3.92;;;;;;;22.26;45.30;94196.25;5988378;23;20019;-89
2022/08/10 08:23:14;;;;;;;9.32;3.83;;;;;;;22.24;45.49;94201.53;6029159;23;20025;-93
2022/08/10 08:25:54;;;;;;;;;;;;;;;;;;;;;
2022/08/10 08:31:44;;;;;;;7.20;3.35;;;;;;;22.28;45.71;94204.75;6133679;23;20028;-92
2022/08/10 08:34:12;;;;;;;8.02;3.40;;;;;;;22.00;44.08;94198.75;6108630;23;20018;-92
2022/08/10 08:36:42;;;;;;;9.93;3.72;;;;;;;21.90;45.21;94204.59;6085034;23;20021;-91
2022/08/10 08:39:07;;;;;;;12.15;6.70;;;;;;;21.94;45.60;94201.56;6045237;23;20022;-90
2022/08/10 08:41:45;;;;;;;16.98;5.47;;;;;;;21.90;43.36;94204.59;6124482;23;20040;-91
2022/08/10 08:44:29;;;;;;;16.42;5.85;;;;;;;21.59;43.84;94201.63;6130168;23;20022;-91
2022/08/10 08:47:31;;;;;;;13.57;5.40;;;;;;;21.55;44.01;94210.16;6154208;23;20028;-92
2022/08/10 08:50:16;;;;;;;7.88;4.35;;;;;;;21.78;44.01;94211.47;6133694;23;20026;-92
2022/08/10 08:52:53;;;;;;;9.65;3.60;;;;;;;21.92;44.45;94197.81;6020126;23;20018;-89
2022/08/10 08:55:25;;;;;;;8.38;3.90;;;;;;;21.87;43.56;94202.84;6040362;23;20022;-91
2022/08/10 08:58:02;;;;;;;9.18;4.45;;;;;;;21.92;43.49;94209.56;6014989;23;20037;-91
2022/08/10 09:00:44;;;;;;;14.32;4.30;;;;;;;21.98;43.09;94209.53;6039789;23;20014;-92
2022/08/10 09:03:26;;;;;;;17.77;9.82;;;;;;;22.07;44.23;94203.72;5984653;23;20420;-92
2022/08/10 09:06:02;;;;;;;24.25;11.52;;;;;;;21.93;43.64;94210.31;6021459;23;20054;-92
2022/08/10 09:08:46;;;;;;;26.73;11.65;;;;;;;21.93;43.01;94204.81;6017474;23;20115;-91
2022/08/10 09:11:37;;;;;;;25.48;12.05;;;;;;;21.76;42.99;94202.97;6039970;23;20601;-94
2022/08/10 09:14:11;;;;;;;37.55;19.17;;;;;;;21.84;43.29;94198.41;6009557;23;20058;-92
2022/08/10 09:17:02;;;;;;;24.58;12.20;;;;;;;22.01;43.10;94192.75;5992408;23;20099;-90
2022/08/10 09:19:44;;;;;;;28.98;17.65;;;;;;;22.07;42.44;94201.72;6035118;23;20106;-93
2022/08/10 09:22:28;;;;;;;25.88;14.27;;;;;;;22.03;42.55;94201.25;6039237;23;20018;-93
2022/08/10 09:24:59;;;;;;;35.42;20.50;;;;;;;22.07;42.55;94187.19;5993410;23;20090;-93
2022/08/10 09:27:44;;;;;;;27.38;17.25;;;;;;;22.10;41.34;94192.41;6016192;23;20019;-92
2022/08/10 09:30:15;;;;;;;39.10;16.10;;;;;;;22.19;41.58;94199.59;6018332;23;20027;-91
2022/08/10 09:32:52;;;;;;;24.02;13.10;;;;;;;22.22;41.13;94196.53;6014434;23;20490;-90
2022/08/10 09:35:22;;;;;;;22.70;9.90;;;;;;;22.12;41.33;94206.41;6059157;23;20018;-92
2022/08/10 09:37:56;;;;;;;26.50;14.55;;;;;;;22.12;41.64;94197.41;6127079;23;20013;-92
2022/08/10 09:40:28;;;;;;;14.90;7.07;;;;;;;22.19;41.51;94191.31;6126510;23;20036;-92
2022/08/10 09:42:59;;;;;;;17.92;9.07;;;;;;;22.28;41.49;94188.22;6174889;23;20097;-90
2022/08/10 09:46:07;;;;;;;20.90;5.50;;;;;;;22.12;41.80;94200.88;6164077;23;20018;-93
2022/08/10 09:48:44;;;;;;;22.48;8.70;;;;;;;22.08;41.73;94189.44;6162049;23;20017;-92
2022/08/10 09:51:35;;;;;;;18.95;7.07;;;;;;;22.08;41.45;94196.97;6109787;23;20035;-89
2022/08/10 09:54:25;;;;;;;15.18;6.15;;;;;;;22.09;40.37;94198.41;6128893;23;20393;-90
2022/08/10 09:57:18;;;;;;;21.77;7.50;;;;;;;21.94;40.83;94193.28;6102294;23;20017;-91
2022/08/10 10:00:07;;;;;;;17.40;6.68;;;;;;;21.96;40.54;94185.25;6126614;23;20251;-91
2022/08/10 10:03:01;;;;;;;10.45;4.95;;;;;;;22.11;40.72;94195.91;6131330;23;20013;-91
2022/08/10 10:06:04;;;;;;;14.70;6.20;;;;;;;22.18;40.10;94198.09;6157026;23;20049;-92
2022/08/10 10:08:48;;;;;;;10.98;4.82;;;;;;;22.07;40.04;94187.94;6149866;23;20013;-94
2022/08/10 10:11:26;;;;;;;10.00;4.10;;;;;;;22.07;40.07;94189.97;6178960;23;20485;-93
2022/08/10 10:13:51;;;;;;;4.80;3.08;;;;;;;22.13;40.34;94190.63;6106614;23;20023;-92
2022/08/10 10:16:21;;;;;;;6.72;3.33;;;;;;;22.18;40.59;94179.56;6190561;23;20029;-94
2022/08/10 10:19:18;;;;;;;5.07;2.50;;;;;;;22.03;40.00;94186.75;6145288;23;20028;-94
2022/08/10 10:22:02;;;;;;;6.47;2.30;;;;;;;22.19;40.06;94183.81;6146558;23;20013;-93
2022/08/10 10:24:55;;;;;;;5.18;1.98;;;;;;;22.19;40.27;94174.78;6190695;23;20100;-91
2022/08/10 10:27:32;;;;;;;4.25;2.35;;;;;;;22.16;40.74;94187.59;6142464;23;20021;-89
2022/08/10 10:30:07;;;;;;;6.32;3.45;;;;;;;22.13;40.11;94193.38;6128841;23;20013;-88
2022/08/10 10:32:38;;;;;;;2.83;1.77;;;;;;;22.18;40.00;94193.31;6152995;23;20020;-92
2022/08/10 10:35:28;;;;;;;7.60;1.90;;;;;;;22.05;39.93;94190.47;6153737;23;20111;-94
2022/08/10 10:37:54;;;;;;;6.10;2.35;;;;;;;22.12;39.99;94184.38;6130232;23;20096;-91
2022/08/10 10:40:23;;;;;;;2.13;1.92;;;;;;;22.23;39.68;94180.75;6104593;23;20422;-90
2022/08/10 10:42:55;;;;;;;2.72;1.80;;;;;;;22.33;40.15;94181.88;6105303;23;20017;-91
2022/08/10 10:45:33;;;;;;;2.75;1.70;;;;;;;22.35;39.09;94181.38;6107916;23;20017;-91
2022/08/10 10:48:01;;;;;;;3.67;1.80;;;;;;;22.29;40.51;94181.47;6105995;23;20100;-91
2022/08/10 10:50:50;;;;;;;3.28;1.63;;;;;;;22.30;39.98;94180.16;6158678;23;20096;-91
2022/08/10 10:53:24;;;;;;;3.40;1.52;;;;;;;22.18;38.97;94174.06;6153747;23;20006;-91
2022/08/10 10:56:12;;;;;;;4.97;1.85;;;;;;;22.17;40.70;94175.31;6157076;23;20025;-91
2022/08/10 10:59:00;;;;;;;9.15;3.30;;;;;;;22.13;40.51;94166.59;6109393;23;20013;-91
2022/08/10 11:01:42;;;;;;;13.13;6.15;;;;;;;22.03;40.38;94175.72;6150505;23;20095;-92
2022/08/10 11:04:19;;;;;;;15.43;6.00;;;;;;;22.00;40.40;94171.22;6132221;23;20024;-91
2022/08/10 11:07:11;;;;;;;12.63;6.57;;;;;;;22.00;40.65;94168.47;6131745;23;20023;-91
2022/08/10 11:09:49;;;;;;;16.83;5.43;;;;;;;22.01;40.91;94162.47;6067341;23;20013;-92
2022/08/10 11:12:28;;;;;;;12.52;5.90;;;;;;;22.02;40.86;94171.47;6108731;23;20449;-92
2022/08/10 11:15:05;;;;;;;17.98;9.70;;;;;;;22.10;40.93;94173.13;6133606;23;20017;-91
2022/08/10 11:17:33;;;;;;;25.40;13.18;;;;;;;22.22;40.35;94171.00;6108632;23;20021;-91
2022/08/10 11:20:11;;;;;;;12.38;5.45;;;;;;;22.22;39.21;94177.25;6106953;23;20013;-89
2022/08/10 11:22:38;;;;;;;14.20;5.53;;;;;;;22.17;40.09;94166.31;6159541;23;20079;-90
2022/08/10 11:25:18;;;;;;;15.75;6.15;;;;;;;22.26;40.30;94171.47;6179941;23;20415;-89
2022/08/10 11:27:51;;;;;;;14.30;5.27;;;;;;;22.28;40.23;94163.44;6108404;23;20453;-90
2022/08/10 11:30:19;;;;;;;12.07;4.68;;;;;;;22.22;39.55;94174.50;6108539;23;20021;-91
2022/08/10 11:33:00;;;;;;;11.82;5.20;;;;;;;22.07;39.43;94159.66;6121671;23;20386;-90
2022/08/10 11:35:44;;;;;;;23.92;9.80;;;;;;;22.05;39.97;94159.44;6100694;23;20482;-90
2022/08/10 11:38:45;;;;;;;12.50;6.00;;;;;;;22.11;40.47;94166.34;6076738;23;20052;-93
2022/08/10 11:41:45;;;;;;;9.70;5.28;;;;;;;22.11;40.62;94165.59;6102549;23;20041;-91
2022/08/10 11:44:19;;;;;;;10.63;5.57;;;;;;;22.24;40.62;94160.22;6103127;23;20018;-90
2022/08/10 11:47:01;;;;;;;7.75;4.43;;;;;;;22.37;40.61;94162.31;6148818;23;20036;-92
2022/08/10 11:49:51;;;;;;;13.25;4.28;;;;;;;22.33;40.19;94164.63;6100766;23;20030;-92
2022/08/10 11:52:34;;;;;;;8.43;4.18;;;;;;;22.36;40.36;94147.06;6128147;23;20020;-92
2022/08/10 11:55:06;;;;;;;9.68;4.07;;;;;;;22.42;39.63;94154.00;6096470;23;20018;-92
2022/08/10 11:57:32;;;;;;;8.55;5.18;;;;;;;22.38;39.86;94158.31;6104463;23;20073;-92
2022/08/10 11:59:58;;;;;;;7.57;4.38;;;;;;;22.44;40.25;94161.75;6102216;23;20018;-93
2022/08/10 12:02:30;;;;;;;7.97;3.13;;;;;;;22.53;39.72;94162.09;6097000;23;20376;-92
2022/08/10 12:05:06;;;;;;;10.70;4.35;;;;;;;22.53;39.18;94153.84;6107208;23;20022;-93
2022/08/10 12:07:56;;;;;;;11.40;4.38;;;;;;;22.51;39.19;94158.41;6107123;23;20018;-93
2022/08/10 12:10:25;;;;;;;10.43;4.72;;;;;;;22.61;38.82;94147.75;6115132;23;20014;-94